Time;durP1;ratioP1;P1;durP2;ratioP2;P2;SDS_P1;SDS_P2;PMS_P1;PMS_P2;Temp;Humidity;BMP_temperature;BMP_pressure;BME280_temperature;BME280_humidity;BME280_pressure;Samples;Min_cycle;Max_cycle;Signal;HPM_P1;HPM_P2
2022/04/23 00:00:33;;;;;;;13.00;10.90;;;;;;99895.96;;;;107197;1274;65915;-29
2022/04/23 00:03:09;;;;;;;12.60;10.60;;;;;;99889.77;;;;107188;1274;64734;-31
2022/04/23 00:05:39;;;;;;;14.40;10.90;;;;;;99889.75;;;;107148;1274;64851;-30
2022/04/23 00:08:08;;;;;;;12.60;10.70;;;;;;99886.99;;;;107172;1275;64761;-31
2022/04/23 00:10:36;;;;;;;12.30;10.50;;;;;;99881.44;;;;107265;1274;64773;-27
2022/04/23 00:13:04;;;;;;;12.20;10.40;;;;;;99877.96;;;;107237;1274;66072;-27
2022/04/23 00:15:37;;;;;;;12.40;10.10;;;;;;99877.59;;;;107148;1274;64777;-30
2022/04/23 00:18:10;;;;;;;12.00;10.00;;;;;;99873.67;;;;107137;1274;64849;-32
2022/04/23 00:20:39;;;;;;;12.60;9.70;;;;;;99871.61;;;;107075;1277;64869;-31
2022/04/23 00:23:07;;;;;;;11.90;10.20;;;;;;99865.73;;;;107149;1274;64717;-30
2022/04/23 00:25:38;;;;;;;13.40;10.70;;;;;;99862.23;;;;107124;1277;65067;-30
2022/04/23 00:28:12;;;;;;;12.00;10.20;;;;;;99858.91;;;;107117;1274;64837;-31
2022/04/23 00:30:39;;;;;;;11.60;10.40;;;;;;99859.47;;;;107050;1276;64786;-28
2022/04/23 00:33:08;;;;;;;12.50;10.10;;;;;;99857.71;;;;107117;1274;64808;-27
2022/04/23 00:35:39;;;;;;;11.50;9.80;;;;;;99850.11;;;;107141;1274;64889;-27
2022/04/23 00:38:09;;;;;;;12.20;10.00;;;;;;99849.23;;;;107125;1277;66487;-27
2022/04/23 00:40:40;;;;;;;11.50;9.30;;;;;;99853.48;;;;107151;1274;64864;-30
2022/04/23 00:43:26;;;;;;;11.60;9.30;;;;;;99853.65;;;;107133;1274;64901;-31
2022/04/23 00:45:54;;;;;;;12.40;9.50;;;;;;99853.73;;;;107115;1276;64866;-30
2022/04/23 00:48:24;;;;;;;11.80;9.30;;;;;;99845.65;;;;107167;1277;64785;-31
2022/04/23 00:50:53;;;;;;;10.60;9.20;;;;;;99845.69;;;;107165;1274;65932;-31
2022/04/23 00:53:25;;;;;;;10.90;9.70;;;;;;99841.02;;;;107106;1277;64794;-32
2022/04/23 00:55:53;;;;;;;10.70;9.30;;;;;;99838.62;;;;107122;1277;64773;-32
2022/04/23 00:58:23;;;;;;;11.20;9.00;;;;;;99835.80;;;;107117;1274;65016;-32
2022/04/23 01:00:50;;;;;;;11.30;9.40;;;;;;99833.47;;;;107194;1274;64853;-28
2022/04/23 01:03:22;;;;;;;11.80;9.40;;;;;;99834.70;;;;107148;1274;64908;-27
2022/04/23 01:05:51;;;;;;;10.00;8.90;;;;;;99832.51;;;;107111;1274;64870;-31
2022/04/23 01:08:21;;;;;;;12.30;9.30;;;;;;99826.30;;;;107149;1274;64692;-27
2022/04/23 01:10:48;;;;;;;10.30;8.50;;;;;;99818.33;;;;107152;1274;64849;-30
2022/04/23 01:13:16;;;;;;;11.60;8.90;;;;;;99813.29;;;;107108;1278;64819;-32
2022/04/23 01:16:01;;;;;;;10.50;8.70;;;;;;99810.71;;;;107142;1277;64895;-27
2022/04/23 01:18:29;;;;;;;10.10;8.70;;;;;;99810.69;;;;107087;1277;64783;-28
2022/04/23 01:21:05;;;;;;;10.00;8.30;;;;;;99810.12;;;;107069;1276;66064;-31
2022/04/23 01:23:36;;;;;;;9.80;7.90;;;;;;99808.77;;;;107053;1276;64881;-32
2022/04/23 01:26:03;;;;;;;10.30;8.30;;;;;;99805.01;;;;107173;1274;64914;-27
2022/04/23 01:28:34;;;;;;;10.20;8.60;;;;;;99802.29;;;;107114;1277;66184;-27
2022/04/23 01:31:05;;;;;;;10.80;8.30;;;;;;99802.52;;;;107076;1275;64761;-27
2022/04/23 01:33:36;;;;;;;11.20;8.90;;;;;;99802.70;;;;107119;1277;64600;-27
2022/04/23 01:36:04;;;;;;;9.50;8.10;;;;;;99797.77;;;;107156;1274;64870;-31
2022/04/23 01:38:31;;;;;;;10.80;8.10;;;;;;99797.75;;;;107140;1277;64802;-32
2022/04/23 01:40:58;;;;;;;9.80;7.70;;;;;;99796.41;;;;107189;1274;65909;-31
2022/04/23 01:43:28;;;;;;;10.00;8.30;;;;;;99792.75;;;;107143;1274;64997;-32
2022/04/23 01:45:55;;;;;;;10.30;8.20;;;;;;99787.25;;;;107138;1274;64776;-30
2022/04/23 01:48:23;;;;;;;10.00;7.70;;;;;;99783.48;;;;107087;1277;64777;-31
2022/04/23 01:50:51;;;;;;;8.90;7.60;;;;;;99782.50;;;;107172;1275;66202;-30
2022/04/23 01:53:22;;;;;;;9.10;7.60;;;;;;99776.54;;;;107151;1274;65215;-32
2022/04/23 01:55:54;;;;;;;9.40;7.20;;;;;;99775.86;;;;107141;1274;64715;-28
2022/04/23 01:58:22;;;;;;;8.50;7.60;;;;;;99774.13;;;;107142;1274;64708;-28
2022/04/23 02:00:50;;;;;;;9.60;7.20;;;;;;99769.63;;;;107164;1274;64837;-27
2022/04/23 02:03:22;;;;;;;9.40;7.30;;;;;;99763.60;;;;107132;1276;64852;-27
2022/04/23 02:05:50;;;;;;;9.70;7.90;;;;;;99759.91;;;;107180;1274;67025;-30
2022/04/23 02:08:18;;;;;;;10.20;8.10;;;;;;99761.81;;;;107138;1274;64866;-31
2022/04/23 02:10:48;;;;;;;9.60;7.40;;;;;;99760.51;;;;107118;1277;64852;-30
2022/04/23 02:13:18;;;;;;;9.70;8.10;;;;;;99759.96;;;;107129;1274;64900;-31
2022/04/23 02:15:46;;;;;;;9.00;7.10;;;;;;99758.42;;;;107168;1274;64874;-27
2022/04/23 02:18:16;;;;;;;9.00;7.60;;;;;;99754.60;;;;107199;1274;66538;-28
2022/04/23 02:20:44;;;;;;;10.20;7.40;;;;;;99749.92;;;;107166;1274;64790;-31
2022/04/23 02:23:11;;;;;;;9.80;7.60;;;;;;99751.61;;;;107185;1274;64756;-31
2022/04/23 02:25:39;;;;;;;9.90;7.60;;;;;;99755.34;;;;107191;1274;64901;-30
2022/04/23 02:28:09;;;;;;;9.20;7.50;;;;;;99755.50;;;;107107;1274;66079;-31
2022/04/23 02:30:36;;;;;;;9.20;7.30;;;;;;99756.42;;;;107166;1274;66174;-27
2022/04/23 02:33:07;;;;;;;8.30;6.90;;;;;;99758.04;;;;107139;1274;64888;-27
2022/04/23 02:35:39;;;;;;;8.70;7.20;;;;;;99757.65;;;;107185;1274;64875;-30
2022/04/23 02:38:09;;;;;;;9.20;7.20;;;;;;99755.73;;;;107183;1274;64769;-32
2022/04/23 02:40:38;;;;;;;10.20;7.10;;;;;;99755.65;;;;107210;1274;64745;-30
2022/04/23 02:43:07;;;;;;;9.00;7.00;;;;;;99755.51;;;;107211;1274;66125;-32
2022/04/23 02:45:38;;;;;;;9.90;7.60;;;;;;99756.91;;;;107076;1275;64862;-30
2022/04/23 02:48:08;;;;;;;8.80;7.30;;;;;;99758.90;;;;107120;1274;64807;-31
2022/04/23 02:50:39;;;;;;;8.90;6.90;;;;;;99763.38;;;;107165;1274;64719;-30
2022/04/23 02:53:08;;;;;;;8.10;6.50;;;;;;99763.30;;;;107190;1274;64763;-31
2022/04/23 02:55:38;;;;;;;7.70;6.50;;;;;;99763.09;;;;107219;1274;65883;-30
2022/04/23 02:58:09;;;;;;;8.30;6.90;;;;;;99759.15;;;;107108;1274;64939;-31
2022/04/23 03:00:39;;;;;;;8.20;6.60;;;;;;99758.23;;;;107158;1274;64783;-28
2022/04/23 03:03:12;;;;;;;9.40;7.10;;;;;;99757.46;;;;107102;1274;64760;-28
2022/04/23 03:05:42;;;;;;;8.20;6.80;;;;;;99757.27;;;;107218;1273;64748;-28
2022/04/23 03:08:11;;;;;;;7.40;6.30;;;;;;99759.67;;;;107159;1274;64874;-27
2022/04/23 03:10:43;;;;;;;8.10;6.70;;;;;;99754.44;;;;107174;1274;64777;-30
2022/04/23 03:13:10;;;;;;;8.20;6.50;;;;;;99754.91;;;;107196;1274;66040;-31
2022/04/23 03:15:38;;;;;;;9.10;7.10;;;;;;99749.88;;;;107161;1274;64853;-27
2022/04/23 03:18:14;;;;;;;8.90;7.10;;;;;;99754.13;;;;107204;1274;65526;-28
2022/04/23 03:20:42;;;;;;;8.00;6.50;;;;;;99751.35;;;;107203;1274;65693;-30
2022/04/23 03:23:13;;;;;;;8.50;7.00;;;;;;99752.15;;;;107036;1274;64968;-31
2022/04/23 03:25:41;;;;;;;8.10;6.90;;;;;;99750.18;;;;107124;1274;64799;-27
2022/04/23 03:28:08;;;;;;;9.30;6.40;;;;;;99747.58;;;;107151;1274;64809;-27
2022/04/23 03:30:36;;;;;;;7.50;6.70;;;;;;99749.34;;;;107209;1274;64806;-30
2022/04/23 03:33:03;;;;;;;7.60;6.50;;;;;;99751.95;;;;107190;1274;66057;-30
2022/04/23 03:35:30;;;;;;;7.60;6.50;;;;;;99756.88;;;;107163;1274;64744;-30
2022/04/23 03:38:01;;;;;;;7.80;6.50;;;;;;99760.23;;;;107137;1274;64858;-31
2022/04/23 03:40:32;;;;;;;8.40;6.50;;;;;;99766.77;;;;107155;1274;64764;-30
2022/04/23 03:43:03;;;;;;;8.10;6.30;;;;;;99765.53;;;;107200;1274;64830;-31
2022/04/23 03:45:32;;;;;;;7.80;6.30;;;;;;99764.52;;;;107204;1274;67424;-28
2022/04/23 03:48:03;;;;;;;9.00;6.80;;;;;;99762.40;;;;107153;1274;64831;-27
2022/04/23 03:50:32;;;;;;;8.70;7.00;;;;;;99766.55;;;;107197;1274;65579;-30
2022/04/23 03:53:03;;;;;;;7.50;6.20;;;;;;99765.87;;;;107167;1274;64955;-31
2022/04/23 03:55:31;;;;;;;8.10;6.30;;;;;;99769.30;;;;107203;1274;64780;-27
2022/04/23 03:57:58;;;;;;;7.50;6.00;;;;;;99770.23;;;;107130;1274;66030;-27
2022/04/23 04:00:30;;;;;;;7.80;6.20;;;;;;99769.14;;;;107166;1274;64770;-28
2022/04/23 04:02:59;;;;;;;8.00;6.60;;;;;;99767.85;;;;107192;1274;64894;-27
2022/04/23 04:05:28;;;;;;;8.00;6.70;;;;;;99769.59;;;;107184;1274;64744;-30
2022/04/23 04:07:55;;;;;;;8.20;6.20;;;;;;99765.79;;;;107198;1274;64717;-31
2022/04/23 04:10:23;;;;;;;8.10;6.30;;;;;;99766.05;;;;107190;1274;66047;-28
2022/04/23 04:12:52;;;;;;;7.90;6.30;;;;;;99766.13;;;;107205;1274;64824;-28
2022/04/23 04:15:22;;;;;;;7.80;6.20;;;;;;99766.55;;;;104889;1274;3097637;-29
2022/04/23 04:17:51;;;;;;;7.60;6.50;;;;;;99766.65;;;;107186;1274;64747;-31
2022/04/23 04:20:21;;;;;;;7.70;6.30;;;;;;99765.66;;;;107216;1274;64761;-31
2022/04/23 04:22:52;;;;;;;7.60;6.30;;;;;;99762.63;;;;107183;1274;65699;-31
2022/04/23 04:25:22;;;;;;;7.20;6.10;;;;;;99764.10;;;;107183;1274;64741;-29
2022/04/23 04:27:50;;;;;;;8.90;6.60;;;;;;99765.55;;;;107170;1274;65091;-31
2022/04/23 04:30:17;;;;;;;7.20;6.00;;;;;;99765.29;;;;107166;1273;64731;-32
2022/04/23 04:32:47;;;;;;;7.80;6.30;;;;;;99764.59;;;;107179;1274;64846;-30
2022/04/23 04:35:19;;;;;;;9.20;7.10;;;;;;99765.33;;;;107206;1274;64865;-30
2022/04/23 04:37:47;;;;;;;8.20;5.90;;;;;;99768.23;;;;107216;1274;64917;-31
2022/04/23 04:40:18;;;;;;;8.90;6.90;;;;;;99766.76;;;;107166;1274;64746;-31
2022/04/23 04:42:51;;;;;;;7.40;6.10;;;;;;99768.44;;;;107148;1274;64766;-31
2022/04/23 04:45:21;;;;;;;7.50;6.20;;;;;;99765.92;;;;107179;1274;64751;-31
2022/04/23 04:47:49;;;;;;;7.60;6.20;;;;;;99765.82;;;;107177;1274;65307;-30
2022/04/23 04:50:17;;;;;;;8.40;6.30;;;;;;99767.24;;;;107021;1274;65581;-32
2022/04/23 04:52:49;;;;;;;7.10;6.10;;;;;;99767.89;;;;107188;1274;64863;-31
2022/04/23 04:55:16;;;;;;;7.40;6.00;;;;;;99767.05;;;;107128;1274;64755;-32
2022/04/23 04:57:48;;;;;;;8.20;6.20;;;;;;99770.32;;;;107156;1274;64863;-27
2022/04/23 05:00:18;;;;;;;7.20;5.90;;;;;;99770.38;;;;107174;1274;65949;-26
2022/04/23 05:02:46;;;;;;;7.30;6.00;;;;;;99769.79;;;;107149;1274;64963;-27
2022/04/23 05:05:16;;;;;;;7.20;6.20;;;;;;99768.48;;;;107149;1274;64738;-27
2022/04/23 05:07:47;;;;;;;7.40;6.00;;;;;;99768.60;;;;107083;1274;64858;-31
2022/04/23 05:10:14;;;;;;;7.80;6.10;;;;;;99766.80;;;;107191;1274;64712;-31
2022/04/23 05:12:45;;;;;;;7.20;6.10;;;;;;99770.85;;;;107183;1274;64888;-37
2022/04/23 05:15:13;;;;;;;8.00;6.00;;;;;;99772.04;;;;107155;1273;64798;-32
2022/04/23 05:17:40;;;;;;;7.50;5.70;;;;;;99774.25;;;;107180;1274;64740;-29
2022/04/23 05:20:09;;;;;;;7.60;6.10;;;;;;99775.66;;;;107169;1274;64854;-32
2022/04/23 05:22:39;;;;;;;7.40;6.20;;;;;;99773.77;;;;107238;1274;64777;-32
2022/04/23 05:25:07;;;;;;;8.00;6.10;;;;;;99776.66;;;;107159;1274;66463;-31
2022/04/23 05:27:37;;;;;;;7.60;5.80;;;;;;99778.81;;;;107199;1274;64888;-32
2022/04/23 05:30:06;;;;;;;7.70;6.20;;;;;;99779.69;;;;107088;1274;64709;-31
2022/04/23 05:32:36;;;;;;;7.00;6.30;;;;;;99780.45;;;;107189;1274;64913;-27
2022/04/23 05:35:05;;;;;;;7.20;6.10;;;;;;99778.68;;;;107194;1274;64760;-29
2022/04/23 05:37:36;;;;;;;7.50;6.00;;;;;;99777.27;;;;107081;1274;64858;-32
2022/04/23 05:40:04;;;;;;;7.70;6.10;;;;;;99776.98;;;;107196;1274;64741;-31
2022/04/23 05:42:35;;;;;;;7.50;6.00;;;;;;99777.58;;;;107222;1274;64741;-31
2022/04/23 05:45:06;;;;;;;7.40;5.90;;;;;;99776.98;;;;107170;1274;64783;-31
2022/04/23 05:47:41;;;;;;;8.00;6.50;;;;;;99774.62;;;;107210;1274;64610;-31
2022/04/23 05:50:09;;;;;;;7.60;6.10;;;;;;99771.11;;;;107190;1274;66863;-32
2022/04/23 05:52:39;;;;;;;8.10;6.40;;;;;;99769.48;;;;107159;1274;64850;-27
2022/04/23 05:55:08;;;;;;;8.20;6.10;;;;;;99771.52;;;;107158;1274;64860;-27
2022/04/23 05:57:39;;;;;;;7.50;5.50;;;;;;99777.01;;;;107195;1274;64883;-27
2022/04/23 06:00:09;;;;;;;7.00;6.00;;;;;;99775.40;;;;107166;1274;64766;-28
2022/04/23 06:02:36;;;;;;;8.50;6.10;;;;;;99776.61;;;;107192;1274;64935;-28
2022/04/23 06:05:04;;;;;;;6.80;5.80;;;;;;99773.15;;;;107156;1274;64767;-30
2022/04/23 06:07:35;;;;;;;7.50;6.00;;;;;;99772.12;;;;107215;1274;64850;-28
2022/04/23 06:10:04;;;;;;;7.40;5.90;;;;;;99769.13;;;;107155;1274;65913;-28
2022/04/23 06:12:31;;;;;;;9.60;6.10;;;;;;99762.58;;;;107129;1274;64721;-35
2022/04/23 06:14:59;;;;;;;7.60;5.90;;;;;;99758.80;;;;107172;1274;65041;-36
2022/04/23 06:17:29;;;;;;;9.20;5.90;;;;;;99761.98;;;;107164;1274;64857;-31
2022/04/23 06:20:00;;;;;;;7.80;5.60;;;;;;99760.80;;;;107159;1274;64702;-31
2022/04/23 06:22:31;;;;;;;8.10;5.80;;;;;;99757.66;;;;107196;1274;64719;-28
2022/04/23 06:24:58;;;;;;;9.50;6.10;;;;;;99758.53;;;;107195;1274;65419;-28
2022/04/23 06:27:30;;;;;;;8.70;6.70;;;;;;99758.29;;;;107092;1274;66206;-32
2022/04/23 06:29:59;;;;;;;7.70;6.10;;;;;;99754.36;;;;107176;1274;64960;-38
2022/04/23 06:32:27;;;;;;;7.90;5.80;;;;;;99754.27;;;;107172;1274;64875;-32
2022/04/23 06:34:54;;;;;;;8.00;6.50;;;;;;99754.10;;;;107140;1274;64777;-38
2022/04/23 06:37:21;;;;;;;7.50;5.80;;;;;;99751.83;;;;107188;1274;64869;-27
2022/04/23 06:39:51;;;;;;;8.90;5.40;;;;;;99753.61;;;;107162;1274;64897;-27
2022/04/23 06:42:19;;;;;;;7.80;5.30;;;;;;99752.73;;;;107206;1274;64754;-31
2022/04/23 06:44:48;;;;;;;7.70;5.90;;;;;;99751.30;;;;107179;1274;64834;-31
2022/04/23 06:47:18;;;;;;;8.50;6.10;;;;;;99748.41;;;;107136;1274;64858;-32
2022/04/23 06:49:46;;;;;;;12.40;6.60;;;;;;99750.18;;;;107142;1277;64959;-28
2022/04/23 06:52:16;;;;;;;8.00;6.20;;;;;;99750.27;;;;107209;1274;65825;-32
2022/04/23 06:54:43;;;;;;;8.00;6.00;;;;;;99753.70;;;;107180;1274;64854;-32
2022/04/23 06:57:14;;;;;;;9.20;6.10;;;;;;99752.92;;;;107190;1274;64791;-47
2022/04/23 06:59:41;;;;;;;7.60;5.80;;;;;;99747.96;;;;107166;1274;64878;-31
2022/04/23 07:02:09;;;;;;;7.70;5.60;;;;;;99753.38;;;;107235;1274;64763;-33
2022/04/23 07:04:39;;;;;;;9.80;5.90;;;;;;99754.95;;;;107202;1274;67337;-29
2022/04/23 07:07:06;;;;;;;8.50;6.20;;;;;;99755.29;;;;107152;1274;64745;-28
2022/04/23 07:09:38;;;;;;;8.00;5.60;;;;;;99752.63;;;;107177;1274;64852;-28
2022/04/23 07:12:10;;;;;;;7.70;5.50;;;;;;99753.97;;;;107134;1274;64860;-32
2022/04/23 07:14:40;;;;;;;7.70;5.90;;;;;;99754.39;;;;107154;1274;64858;-32
2022/04/23 07:17:07;;;;;;;8.10;5.40;;;;;;99752.13;;;;107173;1274;66366;-28
2022/04/23 07:19:41;;;;;;;7.10;5.20;;;;;;99752.13;;;;107128;1274;64856;-28
2022/04/23 07:22:09;;;;;;;8.70;5.80;;;;;;99749.25;;;;107164;1274;65217;-31
2022/04/23 07:24:40;;;;;;;7.20;5.10;;;;;;99744.20;;;;107165;1274;64897;-32
2022/04/23 07:27:12;;;;;;;6.70;5.30;;;;;;99745.08;;;;107191;1274;64783;-31
2022/04/23 07:29:43;;;;;;;6.90;5.40;;;;;;99741.23;;;;107122;1274;66343;-32
2022/04/23 07:32:11;;;;;;;7.90;5.60;;;;;;99739.94;;;;107189;1274;64820;-29
2022/04/23 07:37:34;;;;;;;6.90;5.40;;;;;;99737.85;;;;107157;1274;64775;-28
2022/04/23 07:40:10;;;;;;;7.50;5.50;;;;;;99735.88;;;;107121;1274;64826;-28
2022/04/23 07:42:37;;;;;;;9.00;4.90;;;;;;99737.39;;;;107138;1274;66148;-32
2022/04/23 07:45:06;;;;;;;6.40;4.90;;;;;;99738.67;;;;107108;1274;64772;-32
2022/04/23 07:47:34;;;;;;;7.40;5.00;;;;;;99733.61;;;;107207;1274;64743;-28
2022/04/23 07:50:04;;;;;;;5.90;4.60;;;;;;99731.30;;;;107144;1274;64699;-32
2022/04/23 07:52:35;;;;;;;6.20;4.90;;;;;;99729.52;;;;107208;1274;64619;-28
2022/04/23 07:55:06;;;;;;;6.40;4.90;;;;;;99730.14;;;;107203;1274;65954;-31
2022/04/23 07:57:35;;;;;;;7.70;5.20;;;;;;99729.05;;;;107218;1274;65440;-32
2022/04/23 08:00:03;;;;;;;6.20;4.90;;;;;;99732.04;;;;107159;1274;64878;-34
2022/04/23 08:02:31;;;;;;;7.40;4.90;;;;;;99732.27;;;;107086;1274;64906;-30
2022/04/23 08:04:58;;;;;;;6.00;4.90;;;;;;99730.86;;;;107239;1274;64879;-35
2022/04/23 08:07:27;;;;;;;6.50;4.70;;;;;;99730.19;;;;107241;1274;66408;-26
2022/04/23 08:09:55;;;;;;;6.40;5.00;;;;;;99726.52;;;;107198;1274;64731;-45
2022/04/23 08:12:22;;;;;;;5.60;4.30;;;;;;99722.79;;;;107171;1274;64865;-31
2022/04/23 08:14:49;;;;;;;7.50;4.60;;;;;;99723.52;;;;107204;1274;64816;-31
2022/04/23 08:17:16;;;;;;;5.70;4.30;;;;;;99723.14;;;;107170;1274;64876;-27
2022/04/23 08:19:43;;;;;;;6.50;4.20;;;;;;99726.40;;;;107220;1274;66138;-27
2022/04/23 08:22:11;;;;;;;5.50;4.30;;;;;;99724.33;;;;107153;1274;63565;-32
2022/04/23 08:24:39;;;;;;;6.40;4.00;;;;;;99718.77;;;;107225;1274;64859;-42
2022/04/23 08:27:06;;;;;;;5.60;4.10;;;;;;99717.80;;;;107215;1274;64727;-27
2022/04/23 08:32:19;;;;;;;5.50;4.10;;;;;;99716.80;;;;107242;1274;66873;-26
2022/04/23 08:34:46;;;;;;;5.60;4.10;;;;;;99714.23;;;;107251;1274;64792;-31
2022/04/23 08:37:14;;;;;;;5.60;3.80;;;;;;99713.82;;;;107278;1274;64762;-31
2022/04/23 08:39:42;;;;;;;5.80;4.10;;;;;;99714.46;;;;107221;1273;64738;-30
2022/04/23 08:42:10;;;;;;;6.30;3.90;;;;;;99716.19;;;;107262;1274;64865;-31
2022/04/23 08:44:37;;;;;;;5.20;3.90;;;;;;99719.70;;;;107156;1274;64856;-30
2022/04/23 08:47:05;;;;;;;5.30;3.70;;;;;;99716.03;;;;107183;1274;64935;-32
2022/04/23 08:49:33;;;;;;;5.30;3.90;;;;;;99717.73;;;;107255;1274;64864;-33
2022/04/23 08:52:33;;;;;;;6.10;3.50;;;;;;99714.87;;;;107248;1274;64721;-28
2022/04/23 08:55:08;;;;;;;5.90;3.90;;;;;;99715.04;;;;107203;1274;64878;-28
2022/04/23 08:57:41;;;;;;;6.50;3.80;;;;;;99714.58;;;;107287;1274;66481;-32
2022/04/23 09:00:14;;;;;;;6.40;4.20;;;;;;99713.38;;;;107054;1274;64748;-32
2022/04/23 09:02:43;;;;;;;5.30;3.60;;;;;;99711.16;;;;107288;1274;64847;-34
2022/04/23 09:05:14;;;;;;;5.10;4.00;;;;;;99709.38;;;;107248;1274;64820;-32
2022/04/23 09:07:53;;;;;;;6.50;3.70;;;;;;99708.41;;;;107257;1274;64869;-27
2022/04/23 09:10:51;;;;;;;5.60;3.80;;;;;;99706.56;;;;107168;1274;66882;-29
2022/04/23 09:13:25;;;;;;;5.80;3.90;;;;;;99710.03;;;;107204;1274;64738;-32
2022/04/23 09:24:51;;;;;;;5.80;3.80;;;;;;99694.44;;;;107186;1274;66996;-25
2022/04/23 09:27:18;;;;;;;6.00;3.80;;;;;;99692.36;;;;107179;1274;64987;-27
2022/04/23 09:30:08;;;;;;;5.60;3.70;;;;;;99691.63;;;;107162;1274;64886;-27
2022/04/23 09:32:57;;;;;;;5.50;3.80;;;;;;99695.89;;;;108893;1274;62888;-28
2022/04/23 09:35:28;;;;;;;5.40;3.90;;;;;;99691.31;;;;107023;1274;64779;-31
2022/04/23 09:38:13;;;;;;;6.60;3.70;;;;;;99691.03;;;;107161;1274;67156;-31
2022/04/23 09:40:42;;;;;;;5.20;3.60;;;;;;99695.16;;;;107161;1274;64723;-28
2022/04/23 09:43:10;;;;;;;5.10;3.70;;;;;;99690.59;;;;107232;1274;64590;-27
2022/04/23 09:45:44;;;;;;;5.60;4.00;;;;;;99689.46;;;;107159;1274;64881;-37
2022/04/23 09:48:11;;;;;;;5.30;3.70;;;;;;99685.09;;;;107192;1274;64763;-32
2022/04/23 09:50:47;;;;;;;4.80;3.70;;;;;;99688.98;;;;107207;1274;64689;-32
2022/04/23 09:53:19;;;;;;;5.30;3.80;;;;;;99691.40;;;;107177;1274;64757;-31
2022/04/23 09:55:51;;;;;;;5.30;3.50;;;;;;99689.69;;;;107150;1274;64766;-30
2022/04/23 09:58:19;;;;;;;5.80;4.10;;;;;;99688.27;;;;107217;1273;65061;-31
2022/04/23 10:00:49;;;;;;;5.60;4.00;;;;;;99683.62;;;;107187;1274;64726;-32
2022/04/23 10:03:33;;;;;;;5.50;3.70;;;;;;99687.31;;;;107264;1274;64878;-32
2022/04/23 10:06:04;;;;;;;5.30;3.70;;;;;;99684.98;;;;107155;1274;64917;-27
2022/04/23 10:08:36;;;;;;;5.30;3.90;;;;;;99680.53;;;;107164;1274;64809;-27
2022/04/23 10:11:26;;;;;;;5.30;3.70;;;;;;99683.40;;;;107130;1274;64891;-32
2022/04/23 10:14:06;;;;;;;5.10;4.00;;;;;;99685.23;;;;107261;1274;64846;-31
2022/04/23 10:16:36;;;;;;;5.70;3.70;;;;;;99687.27;;;;107166;1274;65638;-30
2022/04/23 10:19:04;;;;;;;5.10;3.60;;;;;;99688.08;;;;107148;1274;64934;-32
2022/04/23 10:21:42;;;;;;;5.50;3.70;;;;;;99683.66;;;;107155;1274;64885;-27
2022/04/23 10:24:38;;;;;;;5.50;3.70;;;;;;99687.06;;;;107127;1274;64904;-28
2022/04/23 10:27:10;;;;;;;5.20;3.90;;;;;;99687.31;;;;107163;1274;64769;-27
2022/04/23 10:29:38;;;;;;;5.60;3.90;;;;;;99685.92;;;;107132;1274;66025;-27
2022/04/23 10:32:12;;;;;;;5.10;3.60;;;;;;99685.89;;;;107299;1274;64721;-28
2022/04/23 10:34:45;;;;;;;6.00;4.00;;;;;;99684.45;;;;107220;1274;64709;-28
2022/04/23 10:37:20;;;;;;;5.30;3.90;;;;;;99684.96;;;;107135;1274;64974;-28
2022/04/23 10:39:53;;;;;;;5.90;3.80;;;;;;99685.35;;;;107256;1274;64719;-28
2022/04/23 10:42:26;;;;;;;5.70;3.90;;;;;;99686.85;;;;107241;1274;65894;-29
2022/04/23 10:44:57;;;;;;;5.60;3.80;;;;;;99686.60;;;;107260;1274;64879;-28
2022/04/23 10:47:39;;;;;;;4.70;3.50;;;;;;99684.20;;;;107229;1274;64748;-32
2022/04/23 10:50:20;;;;;;;5.80;3.90;;;;;;99686.08;;;;107235;1274;64847;-32
2022/04/23 10:52:53;;;;;;;4.70;3.50;;;;;;99692.91;;;;107251;1274;64747;-31
2022/04/23 10:55:23;;;;;;;6.40;4.50;;;;;;99695.45;;;;107253;1274;67006;-28
2022/04/23 10:57:57;;;;;;;5.20;3.70;;;;;;99691.13;;;;107207;1274;64859;-27
2022/04/23 11:00:43;;;;;;;5.60;4.00;;;;;;99690.63;;;;106987;1274;64876;-31
2022/04/23 11:03:11;;;;;;;5.30;4.00;;;;;;99691.88;;;;107144;1274;64852;-33
2022/04/23 11:14:44;;;;;;;5.40;3.70;;;;;;99693.42;;;;107156;1274;64961;-32
2022/04/23 11:17:20;;;;;;;4.80;3.60;;;;;;99693.95;;;;107173;1274;64976;-27
2022/04/23 11:19:52;;;;;;;5.00;3.70;;;;;;99694.83;;;;107268;1274;64889;-27
2022/04/23 11:22:23;;;;;;;5.00;3.40;;;;;;99694.69;;;;107280;1274;65871;-32
2022/04/23 11:24:54;;;;;;;5.30;3.70;;;;;;99691.86;;;;107204;1274;64734;-32
2022/04/23 11:27:36;;;;;;;6.10;4.10;;;;;;99693.52;;;;107150;1274;63615;-28
2022/04/23 11:30:07;;;;;;;5.50;3.60;;;;;;99694.01;;;;106979;1277;64770;-29
2022/04/23 11:32:37;;;;;;;4.90;3.60;;;;;;99693.28;;;;107194;1274;64793;-33
2022/04/23 11:35:07;;;;;;;5.70;3.80;;;;;;99693.70;;;;107254;1274;65454;-39
2022/04/23 11:37:39;;;;;;;5.30;3.70;;;;;;99687.91;;;;107184;1274;64763;-27
2022/04/23 11:40:12;;;;;;;4.70;3.00;;;;;;99686.66;;;;107239;1273;64726;-27
2022/04/23 11:42:41;;;;;;;5.10;3.30;;;;;;99681.89;;;;107225;1274;64772;-29
2022/04/23 11:45:14;;;;;;;5.50;3.60;;;;;;99680.45;;;;107290;1274;64786;-28
2022/04/23 11:47:44;;;;;;;5.20;3.50;;;;;;99678.52;;;;107267;1274;65841;-31
2022/04/23 11:50:16;;;;;;;5.60;3.80;;;;;;99674.63;;;;107130;1274;64777;-31
2022/04/23 11:52:58;;;;;;;5.10;3.40;;;;;;99672.30;;;;107185;1274;64741;-33
2022/04/23 11:55:28;;;;;;;5.60;3.50;;;;;;99663.48;;;;107229;1274;64729;-28
2022/04/23 11:58:04;;;;;;;6.30;3.30;;;;;;99664.26;;;;107038;1277;64776;-28
2022/04/23 12:00:33;;;;;;;5.90;3.50;;;;;;99668.28;;;;107256;1274;66170;-28
2022/04/23 12:03:04;;;;;;;6.30;3.60;;;;;;99666.84;;;;107254;1274;64838;-32
2022/04/23 12:05:36;;;;;;;6.10;3.80;;;;;;99665.67;;;;107118;1274;64776;-31
2022/04/23 12:08:05;;;;;;;5.90;3.80;;;;;;99669.75;;;;107204;1274;64998;-32
2022/04/23 12:10:37;;;;;;;5.20;3.50;;;;;;99667.27;;;;107288;1274;64750;-28
2022/04/23 12:13:10;;;;;;;5.60;3.30;;;;;;99663.83;;;;107237;1274;66855;-28
2022/04/23 12:15:46;;;;;;;13.00;3.70;;;;;;99663.51;;;;106542;1274;915549;-31
2022/04/23 12:18:21;;;;;;;6.80;3.70;;;;;;99657.73;;;;107220;1274;64818;-32
2022/04/23 12:20:49;;;;;;;6.20;3.60;;;;;;99660.60;;;;107253;1274;64729;-28
2022/04/23 12:23:19;;;;;;;5.40;3.40;;;;;;99658.71;;;;107301;1274;64721;-28
2022/04/23 12:26:08;;;;;;;5.00;3.20;;;;;;99661.17;;;;107215;1274;66496;-28
2022/04/23 12:42:34;;;;;;;4.80;2.90;;;;;;99639.40;;;;107198;1274;64885;-27
2022/04/23 12:45:03;;;;;;;5.20;3.40;;;;;;99639.15;;;;107132;1277;64852;-32
2022/04/23 12:47:35;;;;;;;4.90;3.20;;;;;;99639.45;;;;107227;1274;64782;-35
2022/04/23 12:50:07;;;;;;;5.10;2.80;;;;;;99636.56;;;;107268;1274;64847;-32
2022/04/23 12:52:37;;;;;;;5.40;3.10;;;;;;99636.49;;;;107142;1275;67437;-28
2022/04/23 12:55:25;;;;;;;5.20;3.10;;;;;;99638.26;;;;107209;1274;63942;-31
2022/04/23 12:58:06;;;;;;;5.20;3.10;;;;;;99640.13;;;;107117;1274;64870;-28
2022/04/23 13:00:42;;;;;;;5.20;3.20;;;;;;99647.05;;;;107068;1274;65965;-27
2022/04/23 13:03:28;;;;;;;4.50;2.60;;;;;;99643.92;;;;107244;1274;64849;-27
2022/04/23 13:05:56;;;;;;;4.60;2.90;;;;;;99646.88;;;;107239;1272;66400;-28
2022/04/23 13:11:25;;;;;;;4.60;2.90;;;;;;99644.32;;;;107224;1274;64719;-27
2022/04/23 13:14:03;;;;;;;5.20;3.00;;;;;;99645.88;;;;107147;1274;64922;-27
2022/04/23 13:16:36;;;;;;;6.20;3.00;;;;;;99649.60;;;;107103;1274;64708;-30
2022/04/23 13:19:04;;;;;;;5.10;3.00;;;;;;99649.04;;;;107127;1274;67664;-33
2022/04/23 13:21:36;;;;;;;7.80;3.20;;;;;;99646.97;;;;107208;1274;64897;-32
2022/04/23 13:24:04;;;;;;;6.90;2.80;;;;;;99647.13;;;;107225;1274;64753;-31
2022/04/23 13:26:35;;;;;;;6.30;3.10;;;;;;99641.37;;;;107050;1277;64726;-28
2022/04/23 13:29:03;;;;;;;6.00;3.80;;;;;;99635.63;;;;107238;1274;64864;-28
2022/04/23 13:31:37;;;;;;;4.90;3.10;;;;;;99631.73;;;;107212;1274;66462;-31
2022/04/23 13:34:05;;;;;;;5.00;2.70;;;;;;99633.02;;;;107223;1274;64728;-32
2022/04/23 13:36:32;;;;;;;5.10;3.00;;;;;;99635.26;;;;107146;1274;64837;-27
2022/04/23 13:39:02;;;;;;;6.00;2.70;;;;;;99638.94;;;;107235;1274;64859;-27
2022/04/23 13:41:32;;;;;;;5.70;2.90;;;;;;99633.98;;;;107144;1275;64867;-27
2022/04/23 13:44:05;;;;;;;6.30;3.10;;;;;;99630.73;;;;107207;1274;66486;-27
2022/04/23 13:46:34;;;;;;;4.50;2.70;;;;;;99626.05;;;;107255;1274;64849;-27
2022/04/23 13:49:02;;;;;;;5.50;2.80;;;;;;99626.34;;;;107124;1277;64763;-27
2022/04/23 13:51:39;;;;;;;4.50;2.70;;;;;;99627.22;;;;107171;1275;64980;-27
2022/04/23 13:54:16;;;;;;;5.50;2.70;;;;;;99624.45;;;;107135;1274;64887;-28